createdAt,value
2018-08-09T00:00:16.523Z,0
2018-08-09T00:00:42.659Z,0
2018-08-09T00:01:08.793Z,0
2018-08-09T00:01:35.001Z,0
2018-08-09T00:02:01.135Z,0
2018-08-09T00:02:27.271Z,0
2018-08-09T00:02:53.428Z,0
2018-08-09T00:03:19.568Z,0
2018-08-09T00:03:45.701Z,0
2018-08-09T00:04:11.838Z,0
2018-08-09T00:04:37.976Z,0
2018-08-09T00:05:04.112Z,0
2018-08-09T00:05:30.253Z,0
2018-08-09T00:05:56.411Z,0
2018-08-09T00:06:22.586Z,0
2018-08-09T00:06:48.728Z,0
2018-08-09T00:07:14.889Z,0
2018-08-09T00:07:41.021Z,0
2018-08-09T00:08:07.153Z,0
2018-08-09T00:08:33.320Z,0
2018-08-09T00:08:59.460Z,0
2018-08-09T00:09:25.601Z,0
2018-08-09T00:09:51.738Z,0
2018-08-09T00:10:17.878Z,0
2018-08-09T00:10:44.020Z,0
2018-08-09T00:11:10.157Z,0
2018-08-09T00:11:36.289Z,0
2018-08-09T00:12:02.431Z,0
2018-08-09T00:12:28.572Z,0
2018-08-09T00:12:54.702Z,0
2018-08-09T00:13:20.835Z,0
2018-08-09T00:13:46.998Z,0
2018-08-09T00:14:13.132Z,0
2018-08-09T00:14:39.274Z,0
2018-08-09T00:15:05.400Z,0
2018-08-09T00:15:31.541Z,0
2018-08-09T00:15:57.671Z,0
2018-08-09T00:16:23.835Z,0
2018-08-09T00:16:49.976Z,0
2018-08-09T00:17:16.109Z,0
2018-08-09T00:17:42.268Z,0
2018-08-09T00:18:08.408Z,0
2018-08-09T00:18:34.545Z,0
2018-08-09T00:19:00.682Z,0
2018-08-09T00:19:26.841Z,0
2018-08-09T00:19:52.997Z,0
2018-08-09T00:20:19.135Z,0
2018-08-09T00:20:45.300Z,0
2018-08-09T00:21:11.430Z,0
2018-08-09T00:21:37.570Z,0
2018-08-09T00:22:03.699Z,0
2018-08-09T00:22:29.835Z,0
2018-08-09T00:22:55.980Z,0
2018-08-09T00:23:22.115Z,0
2018-08-09T00:23:48.269Z,0
2018-08-09T00:24:14.425Z,0
2018-08-09T00:24:40.587Z,0
2018-08-09T00:25:06.730Z,0
2018-08-09T00:25:32.889Z,0
2018-08-09T00:25:59.022Z,0
2018-08-09T00:26:25.161Z,0
2018-08-09T00:26:51.296Z,0
2018-08-09T00:27:17.460Z,0
2018-08-09T00:27:43.615Z,0
2018-08-09T00:28:09.746Z,0
2018-08-09T00:28:35.881Z,0
2018-08-09T00:29:02.012Z,0
2018-08-09T00:29:28.174Z,0
2018-08-09T00:29:54.332Z,0
2018-08-09T00:30:20.467Z,0
2018-08-09T00:30:46.625Z,0
2018-08-09T00:31:12.762Z,0
2018-08-09T00:31:38.904Z,0
2018-08-09T00:32:05.037Z,0
2018-08-09T00:32:31.167Z,0
2018-08-09T00:32:57.328Z,0
2018-08-09T00:33:23.472Z,0
2018-08-09T00:33:49.604Z,0
2018-08-09T00:34:15.728Z,0
2018-08-09T00:34:41.864Z,0
2018-08-09T00:35:08.031Z,0
2018-08-09T00:35:34.167Z,0
2018-08-09T00:36:00.298Z,0
2018-08-09T00:36:26.438Z,0
2018-08-09T00:36:52.576Z,0
2018-08-09T00:37:18.711Z,0
2018-08-09T00:37:44.847Z,0
2018-08-09T00:38:10.986Z,0
2018-08-09T00:38:37.119Z,0
2018-08-09T00:39:03.258Z,0
2018-08-09T00:39:29.427Z,0
2018-08-09T00:39:55.559Z,0
2018-08-09T00:40:21.696Z,0
2018-08-09T00:40:47.876Z,0
2018-08-09T00:41:14.013Z,0
2018-08-09T00:41:40.147Z,0
2018-08-09T00:42:06.307Z,0
2018-08-09T00:42:32.478Z,0
2018-08-09T00:42:58.614Z,0
2018-08-09T00:43:24.752Z,0
2018-08-09T00:43:50.894Z,0
2018-08-09T00:44:17.084Z,0
2018-08-09T00:44:43.224Z,0
2018-08-09T00:45:09.356Z,0
2018-08-09T00:45:35.514Z,0
2018-08-09T00:46:01.674Z,0
2018-08-09T00:46:27.813Z,0
2018-08-09T00:46:53.950Z,0
2018-08-09T00:47:20.091Z,0
2018-08-09T00:47:46.253Z,0
2018-08-09T00:48:12.389Z,0
2018-08-09T00:48:38.551Z,0
2018-08-09T00:49:04.683Z,0
2018-08-09T00:49:30.815Z,0
2018-08-09T00:49:56.973Z,0
2018-08-09T00:50:23.133Z,0
2018-08-09T00:50:49.265Z,0
2018-08-09T00:51:15.426Z,0
2018-08-09T00:51:41.569Z,0
2018-08-09T00:52:07.695Z,0
2018-08-09T00:52:33.826Z,0
2018-08-09T00:52:59.965Z,0
2018-08-09T00:53:26.107Z,0
2018-08-09T00:53:52.249Z,0
2018-08-09T00:54:18.406Z,0
2018-08-09T00:54:44.539Z,0
2018-08-09T00:55:10.677Z,0
2018-08-09T00:55:36.810Z,0
2018-08-09T00:56:02.951Z,0
2018-08-09T00:56:29.085Z,0
2018-08-09T00:56:55.220Z,0
2018-08-09T00:57:21.364Z,0
2018-08-09T00:57:47.501Z,0
2018-08-09T00:58:13.639Z,0
2018-08-09T00:58:39.776Z,0
2018-08-09T00:59:05.907Z,0
2018-08-09T00:59:32.060Z,0
2018-08-09T00:59:58.198Z,0
2018-08-09T01:00:24.387Z,0
2018-08-09T01:00:50.518Z,0
2018-08-09T01:01:16.651Z,0
2018-08-09T01:01:42.781Z,0
2018-08-09T01:02:08.919Z,0
2018-08-09T01:02:35.104Z,0
2018-08-09T01:03:01.260Z,0
2018-08-09T01:03:27.421Z,0
2018-08-09T01:03:53.579Z,0
2018-08-09T01:04:19.715Z,0
2018-08-09T01:04:45.860Z,0
2018-08-09T01:05:11.992Z,0
2018-08-09T01:05:38.125Z,0
2018-08-09T01:06:04.268Z,0
2018-08-09T01:06:30.396Z,0
2018-08-09T01:06:56.532Z,0
2018-08-09T01:07:22.675Z,0
2018-08-09T01:07:48.831Z,0
2018-08-09T01:08:14.999Z,0
2018-08-09T01:08:41.134Z,0
2018-08-09T01:09:07.268Z,0
2018-08-09T01:09:33.402Z,0
2018-08-09T01:09:59.540Z,0
2018-08-09T01:10:25.674Z,0
2018-08-09T01:10:51.808Z,0
2018-08-09T01:11:17.970Z,0
2018-08-09T01:11:44.107Z,0
2018-08-09T01:12:10.246Z,0
2018-08-09T01:12:36.376Z,0
2018-08-09T01:13:02.518Z,0
2018-08-09T01:13:28.672Z,0
2018-08-09T01:13:54.811Z,0
2018-08-09T01:14:20.949Z,0
2018-08-09T01:14:47.084Z,0
2018-08-09T01:15:13.213Z,0
2018-08-09T01:15:39.391Z,0
2018-08-09T01:16:05.489Z,0
2018-08-09T01:16:31.630Z,0
2018-08-09T01:16:57.765Z,0
2018-08-09T01:17:23.916Z,0
2018-08-09T01:17:50.062Z,0
2018-08-09T01:18:16.196Z,0
2018-08-09T01:18:42.331Z,0
2018-08-09T01:19:08.493Z,0
2018-08-09T01:19:34.629Z,0
2018-08-09T01:20:00.760Z,0
2018-08-09T01:20:26.917Z,0
2018-08-09T01:20:53.051Z,0
2018-08-09T01:21:19.186Z,0
2018-08-09T01:21:45.322Z,0
2018-08-09T01:22:11.457Z,0
2018-08-09T01:22:37.593Z,0
2018-08-09T01:23:03.731Z,0
2018-08-09T01:23:29.860Z,0
2018-08-09T01:23:56.027Z,0
2018-08-09T01:24:22.162Z,0
2018-08-09T01:24:48.295Z,0
2018-08-09T01:25:14.430Z,0
2018-08-09T01:25:40.563Z,0
2018-08-09T01:26:06.703Z,0
2018-08-09T01:26:32.840Z,0
2018-08-09T01:26:58.979Z,0
2018-08-09T01:27:25.133Z,0
2018-08-09T01:27:51.268Z,0
2018-08-09T01:28:17.398Z,0
2018-08-09T01:28:43.536Z,0
2018-08-09T01:29:09.676Z,0
2018-08-09T01:29:35.808Z,0
2018-08-09T01:30:01.971Z,0
2018-08-09T01:30:28.099Z,0
2018-08-09T01:30:54.234Z,0
2018-08-09T01:31:20.396Z,0
2018-08-09T01:31:46.529Z,0
2018-08-09T01:32:12.662Z,0
2018-08-09T01:32:38.796Z,0
2018-08-09T01:33:04.939Z,0
2018-08-09T01:33:31.101Z,0
2018-08-09T01:33:57.269Z,0
2018-08-09T01:34:23.400Z,0
2018-08-09T01:34:49.535Z,0
2018-08-09T01:35:15.675Z,0
2018-08-09T01:35:41.836Z,0
2018-08-09T01:36:07.962Z,0
2018-08-09T01:36:34.108Z,0
2018-08-09T01:37:00.248Z,0
2018-08-09T01:37:26.412Z,0
2018-08-09T01:37:52.548Z,0
2018-08-09T01:38:18.683Z,0
2018-08-09T01:38:44.823Z,0
2018-08-09T01:39:10.957Z,0
2018-08-09T01:39:37.126Z,0
2018-08-09T01:40:03.264Z,0
2018-08-09T01:40:29.426Z,0
2018-08-09T01:40:55.592Z,0
2018-08-09T01:41:21.751Z,0
2018-08-09T01:41:47.882Z,0
2018-08-09T01:42:14.015Z,0
2018-08-09T01:42:40.196Z,0
2018-08-09T01:43:06.359Z,0
2018-08-09T01:43:32.491Z,0
2018-08-09T01:43:58.629Z,0
2018-08-09T01:44:24.784Z,0
2018-08-09T01:44:50.920Z,0
2018-08-09T01:45:17.059Z,0
2018-08-09T01:45:43.192Z,0
2018-08-09T01:46:09.324Z,0
2018-08-09T01:46:35.464Z,0
2018-08-09T01:47:01.585Z,0
2018-08-09T01:47:27.722Z,0
2018-08-09T01:47:53.857Z,0
2018-08-09T01:48:19.992Z,0
2018-08-09T01:48:46.124Z,0
2018-08-09T01:49:12.254Z,0
2018-08-09T01:49:38.440Z,0
2018-08-09T01:50:04.584Z,0
2018-08-09T01:50:30.717Z,0
2018-08-09T01:50:56.851Z,0
2018-08-09T01:51:23.015Z,0
2018-08-09T01:51:49.144Z,0
2018-08-09T01:52:15.287Z,0
2018-08-09T01:52:41.428Z,0
2018-08-09T01:53:07.568Z,0
2018-08-09T01:53:33.697Z,0
2018-08-09T01:53:59.833Z,0
2018-08-09T01:54:25.966Z,0
2018-08-09T01:54:52.103Z,0
2018-08-09T01:55:18.245Z,0
2018-08-09T01:55:44.368Z,0
2018-08-09T01:56:10.507Z,0
2018-08-09T01:56:36.645Z,0
2018-08-09T01:57:02.783Z,0
2018-08-09T01:57:28.941Z,0
2018-08-09T01:57:55.076Z,0
2018-08-09T01:58:21.201Z,0
2018-08-09T01:58:47.339Z,0
2018-08-09T01:59:13.475Z,0
2018-08-09T01:59:39.609Z,0
2018-08-09T02:00:05.747Z,0
2018-08-09T02:00:31.887Z,0
2018-08-09T02:00:58.018Z,0
2018-08-09T02:01:24.156Z,0
2018-08-09T02:01:50.288Z,0
2018-08-09T02:02:16.452Z,0
2018-08-09T02:02:42.607Z,0
2018-08-09T02:03:08.749Z,0
2018-08-09T02:03:34.905Z,0
2018-08-09T02:04:01.038Z,0
2018-08-09T02:04:27.172Z,0
2018-08-09T02:04:53.493Z,0
2018-08-09T02:05:19.440Z,0
2018-08-09T02:05:45.573Z,0
2018-08-09T02:06:11.712Z,0
2018-08-09T02:06:37.868Z,0
2018-08-09T02:07:04.005Z,0
2018-08-09T02:07:30.138Z,0
2018-08-09T02:07:56.273Z,0
2018-08-09T02:08:22.526Z,0
2018-08-09T02:08:48.695Z,0
2018-08-09T02:09:14.825Z,0
2018-08-09T02:09:40.965Z,0
2018-08-09T02:10:07.126Z,0
2018-08-09T02:10:33.259Z,0
2018-08-09T02:10:59.392Z,0
2018-08-09T02:11:25.530Z,0
2018-08-09T02:11:51.663Z,0
2018-08-09T02:12:17.840Z,0
2018-08-09T02:12:44.013Z,0
2018-08-09T02:13:10.147Z,0
2018-08-09T02:13:36.287Z,0
2018-08-09T02:14:02.493Z,0
2018-08-09T02:14:28.656Z,0
2018-08-09T02:14:54.809Z,0
2018-08-09T02:15:20.995Z,0
2018-08-09T02:15:47.151Z,0
2018-08-09T02:16:13.284Z,0
2018-08-09T02:16:39.428Z,0
2018-08-09T02:17:05.584Z,0
2018-08-09T02:17:31.716Z,0
2018-08-09T02:17:57.851Z,0
2018-08-09T02:18:23.990Z,0
2018-08-09T02:18:50.132Z,0
2018-08-09T02:19:16.257Z,0
2018-08-09T02:19:42.424Z,0
2018-08-09T02:20:08.579Z,0
2018-08-09T02:20:34.745Z,0
2018-08-09T02:21:00.882Z,0
2018-08-09T02:21:27.039Z,0
2018-08-09T02:21:53.178Z,0
2018-08-09T02:22:19.314Z,0
2018-08-09T02:22:45.448Z,0
2018-08-09T02:23:11.596Z,0
2018-08-09T02:23:37.765Z,0
2018-08-09T02:24:03.935Z,0
2018-08-09T02:24:30.096Z,0
2018-08-09T02:24:56.231Z,0
2018-08-09T02:25:22.421Z,0
2018-08-09T02:25:48.584Z,0
2018-08-09T02:26:14.717Z,0
2018-08-09T02:26:40.846Z,0
2018-08-09T02:27:07.066Z,0
2018-08-09T02:27:33.148Z,0
2018-08-09T02:27:59.282Z,0
2018-08-09T02:28:25.441Z,0
2018-08-09T02:28:51.580Z,0
2018-08-09T02:29:17.733Z,0
2018-08-09T02:29:43.874Z,0
2018-08-09T02:30:10.071Z,0
2018-08-09T02:30:36.173Z,0
2018-08-09T02:31:02.327Z,0
2018-08-09T02:31:28.465Z,0
2018-08-09T02:31:54.590Z,0
2018-08-09T02:32:20.728Z,0
2018-08-09T02:32:46.904Z,0
2018-08-09T02:33:13.091Z,0
2018-08-09T02:33:39.254Z,0
2018-08-09T02:34:05.387Z,0
2018-08-09T02:34:31.553Z,0
2018-08-09T02:34:57.759Z,0
2018-08-09T02:35:23.933Z,0
2018-08-09T02:35:50.072Z,0
2018-08-09T02:36:16.248Z,0
2018-08-09T02:36:42.483Z,0
2018-08-09T02:37:08.662Z,0
2018-08-09T02:37:34.803Z,0
2018-08-09T02:38:00.967Z,0
2018-08-09T02:38:27.123Z,0
2018-08-09T02:38:53.324Z,0
2018-08-09T02:39:19.484Z,0
2018-08-09T02:39:45.644Z,0
2018-08-09T02:40:11.794Z,0
2018-08-09T02:40:37.948Z,0
2018-08-09T02:41:04.135Z,0
2018-08-09T02:41:30.280Z,0
2018-08-09T02:41:56.442Z,0
2018-08-09T02:42:22.601Z,0
2018-08-09T02:42:48.763Z,0
2018-08-09T02:43:14.918Z,0
2018-08-09T02:43:41.090Z,0
2018-08-09T02:44:07.253Z,0
2018-08-09T02:44:33.433Z,0
2018-08-09T02:44:59.605Z,0
2018-08-09T02:45:25.797Z,0
2018-08-09T02:45:51.935Z,0
2018-08-09T02:46:18.087Z,0
2018-08-09T02:46:44.355Z,0
2018-08-09T02:47:10.454Z,0
2018-08-09T02:47:36.642Z,0
2018-08-09T02:48:02.804Z,0
2018-08-09T02:48:28.984Z,0
2018-08-09T02:48:55.181Z,0
2018-08-09T02:49:21.324Z,0
2018-08-09T02:49:47.460Z,0
2018-08-09T02:50:13.620Z,0
2018-08-09T02:50:39.758Z,0
2018-08-09T02:51:05.919Z,0
2018-08-09T02:51:32.105Z,0
2018-08-09T02:51:58.307Z,0
2018-08-09T02:52:24.480Z,0
2018-08-09T02:52:50.634Z,0
2018-08-09T02:53:16.769Z,0
2018-08-09T02:53:43.006Z,0
2018-08-09T02:54:09.178Z,0
2018-08-09T02:54:35.389Z,0
2018-08-09T02:55:01.568Z,0
2018-08-09T02:55:27.731Z,0
2018-08-09T02:55:53.918Z,0
2018-08-09T02:56:20.049Z,0
2018-08-09T02:56:46.189Z,0
2018-08-09T02:57:12.340Z,0
2018-08-09T02:57:38.508Z,0
2018-08-09T02:58:04.697Z,0
2018-08-09T02:58:30.836Z,0
2018-08-09T02:58:57.126Z,0
2018-08-09T02:59:23.201Z,0
2018-08-09T02:59:49.508Z,0
2018-08-09T03:00:15.691Z,0
2018-08-09T03:00:41.934Z,0
2018-08-09T03:01:08.090Z,0
2018-08-09T03:01:34.294Z,0
2018-08-09T03:02:00.452Z,0
2018-08-09T03:02:26.588Z,0
2018-08-09T03:02:52.773Z,0
2018-08-09T03:03:18.905Z,0
2018-08-09T03:03:45.042Z,0
2018-08-09T03:04:11.178Z,0
2018-08-09T03:04:37.331Z,0
2018-08-09T03:05:03.540Z,0
2018-08-09T03:05:29.695Z,0
2018-08-09T03:05:55.861Z,0
2018-08-09T03:06:22.027Z,0
2018-08-09T03:06:48.161Z,0
2018-08-09T03:07:14.349Z,0
2018-08-09T03:07:40.492Z,0
2018-08-09T03:08:06.741Z,0
2018-08-09T03:08:32.858Z,0
2018-08-09T03:08:59.044Z,0
2018-08-09T03:09:25.201Z,0
2018-08-09T03:09:51.456Z,0
2018-08-09T03:10:17.657Z,0
2018-08-09T03:10:43.804Z,0
2018-08-09T03:11:09.961Z,0
2018-08-09T03:11:36.154Z,0
2018-08-09T03:12:02.354Z,0
2018-08-09T03:12:28.487Z,0
2018-08-09T03:12:54.642Z,0
2018-08-09T03:13:20.780Z,0
2018-08-09T03:13:46.919Z,0
2018-08-09T03:14:13.054Z,0
2018-08-09T03:14:39.204Z,0
2018-08-09T03:15:05.347Z,0
2018-08-09T03:15:31.482Z,0
2018-08-09T03:15:57.648Z,0
2018-08-09T03:16:23.805Z,0
2018-08-09T03:16:49.958Z,0
2018-08-09T03:17:16.183Z,0
2018-08-09T03:17:42.258Z,0
2018-08-09T03:18:08.412Z,0
2018-08-09T03:18:34.542Z,0
2018-08-09T03:19:00.685Z,0
2018-08-09T03:19:26.817Z,0
2018-08-09T03:19:52.977Z,0
2018-08-09T03:20:19.136Z,0
2018-08-09T03:20:45.268Z,0
2018-08-09T03:21:11.407Z,0
2018-08-09T03:21:37.547Z,0
2018-08-09T03:22:03.682Z,0
2018-08-09T03:22:29.827Z,0
2018-08-09T03:22:55.961Z,0
2018-08-09T03:23:22.106Z,0
2018-08-09T03:23:48.272Z,0
2018-08-09T03:24:14.510Z,0
2018-08-09T03:24:40.593Z,0
2018-08-09T03:25:06.726Z,0
2018-08-09T03:25:32.863Z,0
2018-08-09T03:25:59.004Z,0
2018-08-09T03:26:25.137Z,0
2018-08-09T03:26:51.293Z,0
2018-08-09T03:27:17.438Z,0
2018-08-09T03:27:43.598Z,0
2018-08-09T03:28:09.981Z,0
2018-08-09T03:28:36.045Z,0
2018-08-09T03:29:02.220Z,0
2018-08-09T03:29:28.386Z,0
2018-08-09T03:29:54.530Z,0
2018-08-09T03:30:20.667Z,0
2018-08-09T03:30:46.854Z,0
2018-08-09T03:31:13.014Z,0
2018-08-09T03:31:39.200Z,0
2018-08-09T03:32:05.410Z,0
2018-08-09T03:32:31.701Z,0
2018-08-09T03:32:57.839Z,0
2018-08-09T03:33:23.981Z,0
2018-08-09T03:33:50.153Z,0
2018-08-09T03:34:16.289Z,0
2018-08-09T03:34:42.421Z,0
2018-08-09T03:35:08.600Z,0
2018-08-09T03:35:34.788Z,0
2018-08-09T03:36:01.215Z,0
2018-08-09T03:36:27.350Z,0
2018-08-09T03:36:53.525Z,0
2018-08-09T03:37:19.694Z,0
2018-08-09T03:37:45.843Z,0
2018-08-09T03:38:12.034Z,0
2018-08-09T03:38:38.184Z,0
2018-08-09T03:39:04.344Z,0
2018-08-09T03:39:30.500Z,0
2018-08-09T03:39:56.671Z,0
2018-08-09T03:40:22.793Z,0
2018-08-09T03:40:48.948Z,0
2018-08-09T03:41:15.105Z,0
2018-08-09T03:41:41.267Z,0
2018-08-09T03:42:07.421Z,0
2018-08-09T03:42:33.554Z,0
2018-08-09T03:42:59.698Z,0
2018-08-09T03:43:25.846Z,0
2018-08-09T03:43:52.047Z,0
2018-08-09T03:44:18.197Z,0
2018-08-09T03:44:44.342Z,0
2018-08-09T03:45:10.499Z,0
2018-08-09T03:45:36.653Z,0
2018-08-09T03:46:02.782Z,0
2018-08-09T03:46:28.946Z,0
2018-08-09T03:46:55.104Z,0
2018-08-09T03:47:21.285Z,0
2018-08-09T03:47:47.453Z,0
2018-08-09T03:48:13.631Z,0
2018-08-09T03:48:39.837Z,0
2018-08-09T03:49:06.041Z,0
2018-08-09T03:49:32.172Z,0
2018-08-09T03:49:58.351Z,0
2018-08-09T03:50:24.488Z,0
2018-08-09T03:50:50.627Z,0
2018-08-09T03:51:16.766Z,0
2018-08-09T03:51:42.902Z,0
2018-08-09T03:52:09.040Z,0
2018-08-09T03:52:35.174Z,0
2018-08-09T03:53:01.313Z,0
2018-08-09T03:53:27.903Z,0
2018-08-09T03:53:53.993Z,0
2018-08-09T03:54:20.136Z,0
2018-08-09T03:54:46.319Z,0
2018-08-09T03:55:12.580Z,0
2018-08-09T03:55:38.984Z,0
2018-08-09T03:56:05.080Z,0
2018-08-09T03:56:31.236Z,5
2018-08-09T03:56:57.432Z,5
2018-08-09T03:57:23.936Z,5
2018-08-09T03:57:50.091Z,5
2018-08-09T03:58:16.339Z,5
2018-08-09T03:58:42.392Z,5
2018-08-09T03:59:08.535Z,5
2018-08-09T03:59:34.755Z,5
2018-08-09T04:00:00.874Z,5
2018-08-09T04:00:27.009Z,5
2018-08-09T04:00:53.146Z,5
2018-08-09T04:01:19.297Z,5
2018-08-09T04:01:45.440Z,5
2018-08-09T04:02:11.699Z,5
2018-08-09T04:02:37.779Z,5
2018-08-09T04:03:04.171Z,5
2018-08-09T04:03:30.516Z,5
2018-08-09T04:03:56.701Z,5
2018-08-09T04:04:22.875Z,5
2018-08-09T04:04:49.011Z,10
2018-08-09T04:05:15.140Z,10
2018-08-09T04:05:41.277Z,10
2018-08-09T04:06:07.412Z,10
2018-08-09T04:06:33.575Z,10
2018-08-09T04:06:59.714Z,10
2018-08-09T04:07:25.848Z,10
2018-08-09T04:07:51.980Z,10
2018-08-09T04:08:18.121Z,10
2018-08-09T04:08:44.259Z,10
2018-08-09T04:09:10.392Z,10
2018-08-09T04:09:36.614Z,10
2018-08-09T04:10:02.790Z,10
2018-08-09T04:10:28.917Z,15
2018-08-09T04:10:55.056Z,15
2018-08-09T04:11:21.193Z,15
2018-08-09T04:11:47.374Z,15
2018-08-09T04:12:13.490Z,15
2018-08-09T04:12:39.628Z,15
2018-08-09T04:13:05.764Z,15
2018-08-09T04:13:31.904Z,15
2018-08-09T04:13:58.043Z,15
2018-08-09T04:14:24.201Z,15
2018-08-09T04:14:50.363Z,20
2018-08-09T04:15:16.501Z,20
2018-08-09T04:15:42.633Z,20
2018-08-09T04:16:08.776Z,20
2018-08-09T04:16:34.917Z,20
2018-08-09T04:17:01.050Z,20
2018-08-09T04:17:27.180Z,20
2018-08-09T04:17:53.326Z,25
2018-08-09T04:18:19.484Z,25
2018-08-09T04:18:45.646Z,25
2018-08-09T04:19:11.784Z,25
2018-08-09T04:19:37.921Z,25
2018-08-09T04:20:04.062Z,25
2018-08-09T04:20:30.195Z,25
2018-08-09T04:20:56.336Z,30
2018-08-09T04:21:22.494Z,30
2018-08-09T04:21:48.633Z,30
2018-08-09T04:22:14.775Z,30
2018-08-09T04:22:40.941Z,30
2018-08-09T04:23:07.074Z,30
2018-08-09T04:23:33.219Z,30
2018-08-09T04:23:59.347Z,35
2018-08-09T04:24:25.487Z,35
2018-08-09T04:24:51.626Z,35
2018-08-09T04:25:17.792Z,35
2018-08-09T04:25:43.925Z,35
2018-08-09T04:26:10.067Z,35
2018-08-09T04:26:36.288Z,35
2018-08-09T04:27:02.364Z,40
2018-08-09T04:27:28.496Z,40
2018-08-09T04:27:54.634Z,40
2018-08-09T04:28:20.778Z,40
2018-08-09T04:28:46.949Z,40
2018-08-09T04:29:13.085Z,40
2018-08-09T04:29:39.222Z,40
2018-08-09T04:30:05.361Z,45
2018-08-09T04:30:31.497Z,45
2018-08-09T04:30:57.635Z,45
2018-08-09T04:31:23.769Z,45
2018-08-09T04:31:49.930Z,45
2018-08-09T04:32:16.084Z,45
2018-08-09T04:32:42.209Z,45
2018-08-09T04:33:08.373Z,45
2018-08-09T04:33:34.506Z,45
2018-08-09T04:34:00.638Z,45
2018-08-09T04:34:26.783Z,45
2018-08-09T04:34:52.919Z,45
2018-08-09T04:35:19.075Z,45
2018-08-09T04:35:45.214Z,50
2018-08-09T04:36:11.356Z,50
2018-08-09T04:36:37.492Z,50
2018-08-09T04:37:03.652Z,50
2018-08-09T04:37:29.807Z,50
2018-08-09T04:37:55.980Z,55
2018-08-09T04:38:22.087Z,55
2018-08-09T04:38:48.219Z,55
2018-08-09T04:39:14.357Z,55
2018-08-09T04:39:40.539Z,55
2018-08-09T04:40:06.678Z,55
2018-08-09T04:40:32.841Z,55
2018-08-09T04:40:58.965Z,55
2018-08-09T04:41:25.108Z,55
2018-08-09T04:41:51.248Z,55
2018-08-09T04:42:17.390Z,60
2018-08-09T04:42:43.530Z,60
2018-08-09T04:43:09.689Z,60
2018-08-09T04:43:35.843Z,65
2018-08-09T04:44:02.008Z,65
2018-08-09T04:44:28.150Z,65
2018-08-09T04:44:54.285Z,65
2018-08-09T04:45:20.415Z,65
2018-08-09T04:45:46.572Z,70
2018-08-09T04:46:12.713Z,70
2018-08-09T04:46:38.849Z,70
2018-08-09T04:47:04.985Z,75
2018-08-09T04:47:31.124Z,75
2018-08-09T04:47:57.260Z,75
2018-08-09T04:48:23.432Z,80
2018-08-09T04:48:49.569Z,80
2018-08-09T04:49:15.706Z,80
2018-08-09T04:49:41.842Z,85
2018-08-09T04:50:07.977Z,85
2018-08-09T04:50:34.119Z,85
2018-08-09T04:51:00.246Z,85
2018-08-09T04:51:26.380Z,85
2018-08-09T04:51:52.527Z,85
2018-08-09T04:52:18.682Z,90
2018-08-09T04:52:44.814Z,90
2018-08-09T04:53:10.975Z,90
2018-08-09T04:53:37.109Z,90
2018-08-09T04:54:03.250Z,90
2018-08-09T04:54:29.400Z,90
2018-08-09T04:54:55.529Z,90
2018-08-09T04:55:21.671Z,85
2018-08-09T04:55:47.804Z,85
2018-08-09T04:56:13.945Z,85
2018-08-09T04:56:40.100Z,85
2018-08-09T04:57:06.230Z,85
2018-08-09T04:57:32.359Z,90
2018-08-09T04:57:58.556Z,90
2018-08-09T04:58:24.689Z,85
2018-08-09T04:58:50.820Z,85
2018-08-09T04:59:16.958Z,80
2018-08-09T04:59:43.094Z,80
2018-08-09T05:00:09.224Z,75
2018-08-09T05:00:35.392Z,75
2018-08-09T05:01:01.526Z,70
2018-08-09T05:01:27.660Z,65
2018-08-09T05:01:53.796Z,60
2018-08-09T05:02:19.933Z,55
2018-08-09T05:02:46.085Z,50
2018-08-09T05:03:12.277Z,45
2018-08-09T05:03:38.434Z,45
2018-08-09T05:04:04.570Z,45
2018-08-09T05:04:30.726Z,40
2018-08-09T05:04:56.876Z,40
2018-08-09T05:05:23.037Z,35
2018-08-09T05:05:49.170Z,35
2018-08-09T05:06:15.329Z,35
2018-08-09T05:06:41.490Z,35
2018-08-09T05:07:07.619Z,35
2018-08-09T05:07:33.780Z,35
2018-08-09T05:07:59.911Z,35
2018-08-09T05:08:26.052Z,35
2018-08-09T05:08:52.190Z,35
2018-08-09T05:09:18.348Z,35
2018-08-09T05:09:44.511Z,35
2018-08-09T05:10:10.682Z,35
2018-08-09T05:10:36.877Z,35
2018-08-09T05:11:03.019Z,35
2018-08-09T05:11:29.161Z,40
2018-08-09T05:11:55.318Z,40
2018-08-09T05:12:21.455Z,40
2018-08-09T05:12:47.600Z,40
2018-08-09T05:13:13.739Z,40
2018-08-09T05:13:39.901Z,40
2018-08-09T05:14:06.040Z,40
2018-08-09T05:14:32.172Z,45
2018-08-09T05:14:58.310Z,45
2018-08-09T05:15:24.446Z,45
2018-08-09T05:15:50.604Z,45
2018-08-09T05:16:16.738Z,45
2018-08-09T05:16:42.877Z,45
2018-08-09T05:17:09.035Z,45
2018-08-09T05:17:35.174Z,45
2018-08-09T05:18:01.332Z,45
2018-08-09T05:18:27.475Z,45
2018-08-09T05:18:53.603Z,45
2018-08-09T05:19:19.746Z,45
2018-08-09T05:19:45.884Z,45
2018-08-09T05:20:12.017Z,45
2018-08-09T05:20:38.157Z,45
2018-08-09T05:21:04.290Z,45
2018-08-09T05:21:30.428Z,45
2018-08-09T05:21:56.557Z,45
2018-08-09T05:22:22.701Z,45
2018-08-09T05:22:48.861Z,50
2018-08-09T05:23:15.109Z,50
2018-08-09T05:23:41.206Z,50
2018-08-09T05:24:07.336Z,50
2018-08-09T05:24:33.471Z,45
2018-08-09T05:24:59.610Z,45
2018-08-09T05:25:25.748Z,45
2018-08-09T05:25:51.881Z,45
2018-08-09T05:26:18.031Z,40
2018-08-09T05:26:44.182Z,40
2018-08-09T05:27:10.317Z,40
2018-08-09T05:27:36.456Z,40
2018-08-09T05:28:02.593Z,35
2018-08-09T05:28:28.755Z,35
2018-08-09T05:28:54.892Z,35
2018-08-09T05:29:21.033Z,35
2018-08-09T05:29:47.198Z,35
2018-08-09T05:30:13.335Z,35
2018-08-09T05:30:39.467Z,35
2018-08-09T05:31:05.614Z,35
2018-08-09T05:31:31.774Z,35
2018-08-09T05:31:57.909Z,35
2018-08-09T05:32:24.047Z,35
2018-08-09T05:32:50.197Z,35
2018-08-09T05:33:16.328Z,35
2018-08-09T05:33:42.477Z,35
2018-08-09T05:34:08.664Z,35
2018-08-09T05:34:34.762Z,35
2018-08-09T05:35:00.894Z,40
2018-08-09T05:35:27.029Z,40
2018-08-09T05:35:53.169Z,40
2018-08-09T05:36:19.324Z,40
2018-08-09T05:36:45.461Z,40
2018-08-09T05:37:11.591Z,35
2018-08-09T05:37:37.733Z,35
2018-08-09T05:38:03.877Z,35
2018-08-09T05:38:30.014Z,35
2018-08-09T05:38:56.151Z,40
2018-08-09T05:39:22.286Z,40
2018-08-09T05:39:48.426Z,40
2018-08-09T05:40:14.560Z,40
2018-08-09T05:40:40.696Z,45
2018-08-09T05:41:06.859Z,45
2018-08-09T05:41:33.005Z,45
2018-08-09T05:41:59.158Z,50
2018-08-09T05:42:25.296Z,50
2018-08-09T05:42:51.433Z,55
2018-08-09T05:43:17.588Z,55
2018-08-09T05:43:43.725Z,60
2018-08-09T05:44:09.864Z,65
2018-08-09T05:44:35.993Z,65
2018-08-09T05:45:02.140Z,65
2018-08-09T05:45:28.297Z,70
2018-08-09T05:45:54.435Z,75
2018-08-09T05:46:20.590Z,80
2018-08-09T05:46:46.732Z,85
2018-08-09T05:47:12.869Z,90
2018-08-09T05:47:39.005Z,95
2018-08-09T05:48:05.137Z,105
2018-08-09T05:48:31.292Z,110
2018-08-09T05:48:57.420Z,120
2018-08-09T05:49:23.557Z,125
2018-08-09T05:49:49.700Z,130
2018-08-09T05:50:15.865Z,135
2018-08-09T05:50:42.006Z,145
2018-08-09T05:51:08.142Z,155
2018-08-09T05:51:34.280Z,160
2018-08-09T05:52:00.437Z,165
2018-08-09T05:52:26.579Z,170
2018-08-09T05:52:52.826Z,175
2018-08-09T05:53:18.954Z,175
2018-08-09T05:53:45.032Z,175
2018-08-09T05:54:11.163Z,175
2018-08-09T05:54:37.302Z,175
2018-08-09T05:55:03.439Z,175
2018-08-09T05:55:29.576Z,170
2018-08-09T05:55:55.716Z,175
2018-08-09T05:56:21.850Z,170
2018-08-09T05:56:48.016Z,170
2018-08-09T05:57:14.173Z,165
2018-08-09T05:57:40.334Z,160
2018-08-09T05:58:06.469Z,150
2018-08-09T05:58:32.701Z,140
2018-08-09T05:58:58.747Z,135
2018-08-09T05:59:24.898Z,125
2018-08-09T05:59:51.020Z,125
2018-08-09T06:00:17.158Z,125
2018-08-09T06:00:43.337Z,120
2018-08-09T06:01:09.439Z,120
2018-08-09T06:01:35.593Z,120
2018-08-09T06:02:01.756Z,125
2018-08-09T06:02:27.897Z,130
2018-08-09T06:02:54.024Z,130
2018-08-09T06:03:20.194Z,130
2018-08-09T06:03:46.326Z,135
2018-08-09T06:04:12.463Z,135
2018-08-09T06:04:38.599Z,135
2018-08-09T06:05:04.758Z,140
2018-08-09T06:05:30.897Z,145
2018-08-09T06:05:57.070Z,145
2018-08-09T06:06:23.221Z,150
2018-08-09T06:06:49.381Z,155
2018-08-09T06:07:15.537Z,160
2018-08-09T06:07:41.677Z,165
2018-08-09T06:08:07.816Z,170
2018-08-09T06:08:33.979Z,175
2018-08-09T06:09:00.138Z,185
2018-08-09T06:09:26.321Z,185
2018-08-09T06:09:52.410Z,190
2018-08-09T06:10:18.548Z,190
2018-08-09T06:10:44.690Z,190
2018-08-09T06:11:10.828Z,190
2018-08-09T06:11:37.003Z,185
2018-08-09T06:12:03.143Z,185
2018-08-09T06:12:29.275Z,180
2018-08-09T06:12:55.435Z,170
2018-08-09T06:13:21.577Z,160
2018-08-09T06:13:47.701Z,145
2018-08-09T06:14:13.841Z,135
2018-08-09T06:14:39.976Z,120
2018-08-09T06:15:06.106Z,120
2018-08-09T06:15:32.237Z,115
2018-08-09T06:15:58.374Z,115
2018-08-09T06:16:24.516Z,120
2018-08-09T06:16:50.711Z,120
2018-08-09T06:17:16.864Z,125
2018-08-09T06:17:43.010Z,125
2018-08-09T06:18:09.145Z,130
2018-08-09T06:18:35.281Z,130
2018-08-09T06:19:01.449Z,130
2018-08-09T06:19:27.586Z,130
2018-08-09T06:19:53.718Z,125
2018-08-09T06:20:19.878Z,120